sensor_id;sensor_type;location;lat;lon;timestamp;pressure;altitude;pressure_sealevel;temperature;humidity
6853;BME280;3465;42.144;24.722;2023-09-19T00:00:36;146582.63;;;14.66;nan
6853;BME280;3465;42.144;24.722;2023-09-19T00:03:02;146553.75;;;14.55;nan
6853;BME280;3465;42.144;24.722;2023-09-19T00:05:29;146557.53;;;14.56;nan
6853;BME280;3465;42.144;24.722;2023-09-19T00:07:58;146567.56;;;14.60;nan
6853;BME280;3465;42.144;24.722;2023-09-19T00:10:27;146565.06;;;14.59;nan
6853;BME280;3465;42.144;24.722;2023-09-19T00:12:59;146548.72;;;14.53;nan
6853;BME280;3465;42.144;24.722;2023-09-19T00:15:26;146551.22;;;14.54;nan
6853;BME280;3465;42.144;24.722;2023-09-19T00:17:55;146519.81;;;14.41;nan
6853;BME280;3465;42.144;24.722;2023-09-19T00:20:22;146503.47;;;14.34;nan
6853;BME280;3465;42.144;24.722;2023-09-19T00:22:50;146487.13;;;14.28;nan
6853;BME280;3465;42.144;24.722;2023-09-19T00:25:19;146351.44;;;13.74;nan
6853;BME280;3465;42.144;24.722;2023-09-19T00:27:46;146460.72;;;14.17;nan
6853;BME280;3465;42.144;24.722;2023-09-19T00:30:17;146460.72;;;14.17;nan
6853;BME280;3465;42.144;24.722;2023-09-19T00:32:45;146472.03;;;14.22;nan
6853;BME280;3465;42.144;24.722;2023-09-19T00:35:16;146464.50;;;14.19;nan
6853;BME280;3465;42.144;24.722;2023-09-19T00:37:42;146434.31;;;14.07;nan
6853;BME280;3465;42.144;24.722;2023-09-19T00:40:08;146456.97;;;14.16;nan
6853;BME280;3465;42.144;24.722;2023-09-19T00:42:40;146444.41;;;14.11;nan
6853;BME280;3465;42.144;24.722;2023-09-19T00:45:07;146464.50;;;14.19;nan
6853;BME280;3465;42.144;24.722;2023-09-19T00:47:35;146480.88;;;14.25;nan
6853;BME280;3465;42.144;24.722;2023-09-19T00:50:00;146487.13;;;14.28;nan
6853;BME280;3465;42.144;24.722;2023-09-19T00:52:27;146459.44;;;14.17;nan
6853;BME280;3465;42.144;24.722;2023-09-19T00:54:54;146466.97;;;14.20;nan
6853;BME280;3465;42.144;24.722;2023-09-19T00:57:19;146458.19;;;14.16;nan
6853;BME280;3465;42.144;24.722;2023-09-19T00:59:49;146439.34;;;14.09;nan
6853;BME280;3465;42.144;24.722;2023-09-19T01:02:16;146402.94;;;13.94;nan
6853;BME280;3465;42.144;24.722;2023-09-19T01:04:41;146299.97;;;13.53;nan
6853;BME280;3465;42.144;24.722;2023-09-19T01:07:08;146286.16;;;13.48;nan
6853;BME280;3465;42.144;24.722;2023-09-19T01:09:34;146355.22;;;13.75;nan
6853;BME280;3465;42.144;24.722;2023-09-19T01:12:02;146374.03;;;13.83;nan
6853;BME280;3465;42.144;24.722;2023-09-19T01:14:42;146376.56;;;13.84;nan
6853;BME280;3465;42.144;24.722;2023-09-19T01:17:22;146356.47;;;13.76;nan
6853;BME280;3465;42.144;24.722;2023-09-19T01:22:58;146352.72;;;13.74;nan
6853;BME280;3465;42.144;24.722;2023-09-19T01:30:57;146327.59;;;13.64;nan
6853;BME280;3465;42.144;24.722;2023-09-19T01:33:26;146315.03;;;13.59;nan
6853;BME280;3465;42.144;24.722;2023-09-19T01:35:52;146301.19;;;13.54;nan
6853;BME280;3465;42.144;24.722;2023-09-19T01:38:19;146268.59;;;13.41;nan
6853;BME280;3465;42.144;24.722;2023-09-19T01:40:57;146248.50;;;13.33;nan
6853;BME280;3465;42.144;24.722;2023-09-19T01:43:32;146200.78;;;13.14;nan
6853;BME280;3465;42.144;24.722;2023-09-19T01:48:40;146220.84;;;13.22;nan
6853;BME280;3465;42.144;24.722;2023-09-19T01:51:09;146175.72;;;13.04;nan
6853;BME280;3465;42.144;24.722;2023-09-19T01:53:42;146158.06;;;12.96;nan
6853;BME280;3465;42.144;24.722;2023-09-19T01:56:16;146146.78;;;12.92;nan
6853;BME280;3465;42.144;24.722;2023-09-19T01:58:51;146146.78;;;12.92;nan
6853;BME280;3465;42.144;24.722;2023-09-19T02:01:22;146170.69;;;13.02;nan
6853;BME280;3465;42.144;24.722;2023-09-19T02:03:48;146151.81;;;12.94;nan
6853;BME280;3465;42.144;24.722;2023-09-19T02:06:17;146151.81;;;12.94;nan
6853;BME280;3465;42.144;24.722;2023-09-19T02:08:45;146144.25;;;12.91;nan
6853;BME280;3465;42.144;24.722;2023-09-19T02:11:13;146148.06;;;12.92;nan
6853;BME280;3465;42.144;24.722;2023-09-19T02:13:39;146184.44;;;13.07;nan
6853;BME280;3465;42.144;24.722;2023-09-19T02:16:06;146188.25;;;13.09;nan
6853;BME280;3465;42.144;24.722;2023-09-19T02:18:32;146187.00;;;13.08;nan
6853;BME280;3465;42.144;24.722;2023-09-19T02:21:01;146212.09;;;13.18;nan
6853;BME280;3465;42.144;24.722;2023-09-19T02:23:26;146183.25;;;13.07;nan
6853;BME280;3465;42.144;24.722;2023-09-19T02:25:56;146187.00;;;13.08;nan
6853;BME280;3465;42.144;24.722;2023-09-19T02:28:28;146188.25;;;13.09;nan
6853;BME280;3465;42.144;24.722;2023-09-19T02:30:58;146190.75;;;13.10;nan
6853;BME280;3465;42.144;24.722;2023-09-19T02:33:24;146171.94;;;13.02;nan
6853;BME280;3465;42.144;24.722;2023-09-19T02:35:49;146150.56;;;12.93;nan
6853;BME280;3465;42.144;24.722;2023-09-19T02:38:15;146150.56;;;12.93;nan
6853;BME280;3465;42.144;24.722;2023-09-19T02:40:46;146135.50;;;12.87;nan
6853;BME280;3465;42.144;24.722;2023-09-19T02:43:11;146135.50;;;12.87;nan
6853;BME280;3465;42.144;24.722;2023-09-19T02:45:37;146150.56;;;12.93;nan
6853;BME280;3465;42.144;24.722;2023-09-19T02:48:02;146092.81;;;12.70;nan
6853;BME280;3465;42.144;24.722;2023-09-19T02:50:28;146115.44;;;12.79;nan
6853;BME280;3465;42.144;24.722;2023-09-19T02:52:54;146105.38;;;12.75;nan
6853;BME280;3465;42.144;24.722;2023-09-19T02:55:21;146102.88;;;12.74;nan
6853;BME280;3465;42.144;24.722;2023-09-19T02:57:51;146100.34;;;12.73;nan
6853;BME280;3465;42.144;24.722;2023-09-19T03:00:18;146112.88;;;12.78;nan
6853;BME280;3465;42.144;24.722;2023-09-19T03:02:51;146072.75;;;12.62;nan
6853;BME280;3465;42.144;24.722;2023-09-19T03:05:18;146085.28;;;12.67;nan
6853;BME280;3465;42.144;24.722;2023-09-19T03:07:44;146097.84;;;12.72;nan
6853;BME280;3465;42.144;24.722;2023-09-19T03:10:12;146109.13;;;12.77;nan
6853;BME280;3465;42.144;24.722;2023-09-19T03:12:40;146109.13;;;12.77;nan
6853;BME280;3465;42.144;24.722;2023-09-19T03:15:05;146074.00;;;12.63;nan
6853;BME280;3465;42.144;24.722;2023-09-19T03:17:33;146092.81;;;12.70;nan
6853;BME280;3465;42.144;24.722;2023-09-19T03:19:59;146045.16;;;12.51;nan
6853;BME280;3465;42.144;24.722;2023-09-19T03:22:28;146062.72;;;12.58;nan
6853;BME280;3465;42.144;24.722;2023-09-19T03:24:53;146066.50;;;12.60;nan
6853;BME280;3465;42.144;24.722;2023-09-19T03:27:19;146056.44;;;12.56;nan
6853;BME280;3465;42.144;24.722;2023-09-19T03:29:46;146038.91;;;12.49;nan
6853;BME280;3465;42.144;24.722;2023-09-19T03:32:11;146031.38;;;12.46;nan
6853;BME280;3465;42.144;24.722;2023-09-19T03:34:37;146022.59;;;12.42;nan
6853;BME280;3465;42.144;24.722;2023-09-19T03:37:07;145984.94;;;12.27;nan
6853;BME280;3465;42.144;24.722;2023-09-19T03:39:33;146013.81;;;12.39;nan
6853;BME280;3465;42.144;24.722;2023-09-19T03:41:59;146005.00;;;12.35;nan
6853;BME280;3465;42.144;24.722;2023-09-19T03:44:24;145996.22;;;12.32;nan
6853;BME280;3465;42.144;24.722;2023-09-19T03:46:50;145976.16;;;12.24;nan
6853;BME280;3465;42.144;24.722;2023-09-19T03:49:15;145938.56;;;12.09;nan
6853;BME280;3465;42.144;24.722;2023-09-19T03:51:40;145938.56;;;12.09;nan
6853;BME280;3465;42.144;24.722;2023-09-19T03:54:07;145914.75;;;11.99;nan
6853;BME280;3465;42.144;24.722;2023-09-19T03:56:32;145889.66;;;11.89;nan
6853;BME280;3465;42.144;24.722;2023-09-19T03:58:58;145879.59;;;11.85;nan
6853;BME280;3465;42.144;24.722;2023-09-19T04:01:23;145870.88;;;11.82;nan
6853;BME280;3465;42.144;24.722;2023-09-19T04:03:49;145873.34;;;11.83;nan
6853;BME280;3465;42.144;24.722;2023-09-19T04:06:17;145842.03;;;11.70;nan
6853;BME280;3465;42.144;24.722;2023-09-19T04:08:42;145857.06;;;11.76;nan
6853;BME280;3465;42.144;24.722;2023-09-19T04:11:09;145879.59;;;11.85;nan
6853;BME280;3465;42.144;24.722;2023-09-19T04:13:35;145885.91;;;11.88;nan
6853;BME280;3465;42.144;24.722;2023-09-19T04:16:00;145893.41;;;11.91;nan
6853;BME280;3465;42.144;24.722;2023-09-19T04:18:26;145897.16;;;11.92;nan
6853;BME280;3465;42.144;24.722;2023-09-19T04:20:52;145887.16;;;11.88;nan
6853;BME280;3465;42.144;24.722;2023-09-19T04:23:18;145879.59;;;11.85;nan
6853;BME280;3465;42.144;24.722;2023-09-19T04:25:46;145889.66;;;11.89;nan
6853;BME280;3465;42.144;24.722;2023-09-19T04:28:11;145868.34;;;11.81;nan
6853;BME280;3465;42.144;24.722;2023-09-19T04:30:37;145923.47;;;12.03;nan
6853;BME280;3465;42.144;24.722;2023-09-19T04:33:03;145942.31;;;12.10;nan
6853;BME280;3465;42.144;24.722;2023-09-19T04:35:28;145939.78;;;12.09;nan
6853;BME280;3465;42.144;24.722;2023-09-19T04:37:57;145954.88;;;12.15;nan
6853;BME280;3465;42.144;24.722;2023-09-19T04:40:23;145957.34;;;12.16;nan
6853;BME280;3465;42.144;24.722;2023-09-19T04:42:58;145987.47;;;12.28;nan
6853;BME280;3465;42.144;24.722;2023-09-19T04:45:28;146013.81;;;12.39;nan
6853;BME280;3465;42.144;24.722;2023-09-19T04:47:54;146156.81;;;12.96;nan
6853;BME280;3465;42.144;24.722;2023-09-19T04:50:20;146405.41;;;13.95;nan
6853;BME280;3465;42.144;24.722;2023-09-19T04:52:49;146702.06;;;15.14;nan
6853;BME280;3465;42.144;24.722;2023-09-19T04:55:16;146975.03;;;16.23;nan
6853;BME280;3465;42.144;24.722;2023-09-19T04:57:46;147234.44;;;17.26;nan
6853;BME280;3465;42.144;24.722;2023-09-19T05:00:17;147460.00;;;18.16;nan
6853;BME280;3465;42.144;24.722;2023-09-19T05:02:44;147678.19;;;19.03;nan
6853;BME280;3465;42.144;24.722;2023-09-19T05:05:10;147890.16;;;19.87;nan
6853;BME280;3465;42.144;24.722;2023-09-19T05:07:40;148073.28;;;20.60;nan
6853;BME280;3465;42.144;24.722;2023-09-19T05:10:07;148211.00;;;21.14;nan
6853;BME280;3465;42.144;24.722;2023-09-19T05:12:34;148362.63;;;21.75;nan
6853;BME280;3465;42.144;24.722;2023-09-19T05:15:09;148461.28;;;22.14;nan
6853;BME280;3465;42.144;24.722;2023-09-19T05:17:35;148651.03;;;22.89;nan
6853;BME280;3465;42.144;24.722;2023-09-19T05:20:02;148766.19;;;23.35;nan
6853;BME280;3465;42.144;24.722;2023-09-19T05:22:40;148906.72;;;23.90;nan
6853;BME280;3465;42.144;24.722;2023-09-19T05:25:06;149030.84;;;24.40;nan
6853;BME280;3465;42.144;24.722;2023-09-19T05:27:32;149119.56;;;24.75;nan
6853;BME280;3465;42.144;24.722;2023-09-19T05:29:59;149185.44;;;25.01;nan
6853;BME280;3465;42.144;24.722;2023-09-19T05:32:24;149281.78;;;25.39;nan
6853;BME280;3465;42.144;24.722;2023-09-19T05:34:50;149404.78;;;25.88;nan
6853;BME280;3465;42.144;24.722;2023-09-19T05:37:19;149468.19;;;26.13;nan
6853;BME280;3465;42.144;24.722;2023-09-19T05:39:44;149548.13;;;26.44;nan
6853;BME280;3465;42.144;24.722;2023-09-19T05:42:10;149636.97;;;26.80;nan
6853;BME280;3465;42.144;24.722;2023-09-19T05:44:35;149729.59;;;27.16;nan
6853;BME280;3465;42.144;24.722;2023-09-19T05:47:02;149799.44;;;27.44;nan
6853;BME280;3465;42.144;24.722;2023-09-19T05:49:28;149884.50;;;27.77;nan
6853;BME280;3465;42.144;24.722;2023-09-19T05:51:53;149965.81;;;28.10;nan
6853;BME280;3465;42.144;24.722;2023-09-19T05:54:20;149981.03;;;28.16;nan
6853;BME280;3465;42.144;24.722;2023-09-19T05:56:46;150050.91;;;28.43;nan
6853;BME280;3465;42.144;24.722;2023-09-19T05:59:17;150067.47;;;28.50;nan
6853;BME280;3465;42.144;24.722;2023-09-19T06:01:43;150062.31;;;28.48;nan
6853;BME280;3465;42.144;24.722;2023-09-19T06:04:08;150110.63;;;28.67;nan
6853;BME280;3465;42.144;24.722;2023-09-19T06:06:34;150181.81;;;28.95;nan
6853;BME280;3465;42.144;24.722;2023-09-19T06:09:04;150269.53;;;29.29;nan
6853;BME280;3465;42.144;24.722;2023-09-19T06:11:30;150331.81;;;29.54;nan
6853;BME280;3465;42.144;24.722;2023-09-19T06:13:57;150460.25;;;30.05;nan
6853;BME280;3465;42.144;24.722;2023-09-19T06:16:25;150492.03;;;30.17;nan
6853;BME280;3465;42.144;24.722;2023-09-19T06:18:51;150541.69;;;30.37;nan
6853;BME280;3465;42.144;24.722;2023-09-19T06:21:18;150492.03;;;30.17;nan
6853;BME280;3465;42.144;24.722;2023-09-19T06:23:43;150640.94;;;30.76;nan
6853;BME280;3465;42.144;24.722;2023-09-19T06:26:09;150702.06;;;31.00;nan
6853;BME280;3465;42.144;24.722;2023-09-19T06:28:34;150724.94;;;31.09;nan
6853;BME280;3465;42.144;24.722;2023-09-19T06:31:02;150735.16;;;31.13;nan
6853;BME280;3465;42.144;24.722;2023-09-19T06:33:27;150788.66;;;31.34;nan
6853;BME280;3465;42.144;24.722;2023-09-19T06:35:53;150806.44;;;31.41;nan
6853;BME280;3465;42.144;24.722;2023-09-19T06:38:24;150988.56;;;32.13;nan
6853;BME280;3465;42.144;24.722;2023-09-19T06:40:49;150984.75;;;32.12;nan
6853;BME280;3465;42.144;24.722;2023-09-19T06:43:15;151048.41;;;32.37;nan
6853;BME280;3465;42.144;24.722;2023-09-19T06:45:40;151045.88;;;32.36;nan
6853;BME280;3465;42.144;24.722;2023-09-19T06:48:06;150889.19;;;31.74;nan
6853;BME280;3465;42.144;24.722;2023-09-19T06:50:32;150690.63;;;30.96;nan
6853;BME280;3465;42.144;24.722;2023-09-19T06:53:18;150527.72;;;30.31;nan
6853;BME280;3465;42.144;24.722;2023-09-19T06:55:44;150267.00;;;29.28;nan
6853;BME280;3465;42.144;24.722;2023-09-19T06:58:10;150183.03;;;28.95;nan
6853;BME280;3465;42.144;24.722;2023-09-19T07:00:36;149883.22;;;27.77;nan
6853;BME280;3465;42.144;24.722;2023-09-19T07:03:04;149681.38;;;26.97;nan
6853;BME280;3465;42.144;24.722;2023-09-19T07:05:34;149812.16;;;27.49;nan
6853;BME280;3465;42.144;24.722;2023-09-19T07:08:02;150025.50;;;28.33;nan
6853;BME280;3465;42.144;24.722;2023-09-19T07:10:29;150223.75;;;29.11;nan
6853;BME280;3465;42.144;24.722;2023-09-19T07:12:59;150282.25;;;29.34;nan
6853;BME280;3465;42.144;24.722;2023-09-19T07:15:28;150185.63;;;28.96;nan
6853;BME280;3465;42.144;24.722;2023-09-19T07:17:56;150254.28;;;29.23;nan
6853;BME280;3465;42.144;24.722;2023-09-19T07:20:23;150355.97;;;29.64;nan
6853;BME280;3465;42.144;24.722;2023-09-19T07:22:52;150689.31;;;30.95;nan
6853;BME280;3465;42.144;24.722;2023-09-19T07:25:20;150912.09;;;31.83;nan
6853;BME280;3465;42.144;24.722;2023-09-19T07:27:45;150898.13;;;31.77;nan
6853;BME280;3465;42.144;24.722;2023-09-19T07:30:11;150952.88;;;31.99;nan
6853;BME280;3465;42.144;24.722;2023-09-19T07:32:37;151068.84;;;32.45;nan
6853;BME280;3465;42.144;24.722;2023-09-19T07:35:04;151304.56;;;33.37;nan
6853;BME280;3465;42.144;24.722;2023-09-19T07:37:31;151512.47;;;34.19;nan
6853;BME280;3465;42.144;24.722;2023-09-19T07:39:59;151629.81;;;34.65;nan
6853;BME280;3465;42.144;24.722;2023-09-19T07:42:26;151745.97;;;35.11;nan
6853;BME280;3465;42.144;24.722;2023-09-19T07:44:52;151866.00;;;35.58;nan
6853;BME280;3465;42.144;24.722;2023-09-19T07:47:19;151908.06;;;35.75;nan
6853;BME280;3465;42.144;24.722;2023-09-19T07:49:49;151666.81;;;34.80;nan
6853;BME280;3465;42.144;24.722;2023-09-19T07:52:15;151618.34;;;34.61;nan
6853;BME280;3465;42.144;24.722;2023-09-19T07:54:41;151767.69;;;35.20;nan
6853;BME280;3465;42.144;24.722;2023-09-19T07:57:09;151849.41;;;35.52;nan
6853;BME280;3465;42.144;24.722;2023-09-19T07:59:34;151814.94;;;35.38;nan
6853;BME280;3465;42.144;24.722;2023-09-19T08:02:01;151525.22;;;34.24;nan
6853;BME280;3465;42.144;24.722;2023-09-19T08:04:26;151415.53;;;33.81;nan
6853;BME280;3465;42.144;24.722;2023-09-19T08:06:52;151634.94;;;34.67;nan
6853;BME280;3465;42.144;24.722;2023-09-19T08:09:17;151768.94;;;35.20;nan
6853;BME280;3465;42.144;24.722;2023-09-19T08:11:47;151973.22;;;36.00;nan
6853;BME280;3465;42.144;24.722;2023-09-19T08:14:13;152107.38;;;36.53;nan
6853;BME280;3465;42.144;24.722;2023-09-19T08:16:39;152212.13;;;36.94;nan
6853;BME280;3465;42.144;24.722;2023-09-19T08:19:05;152269.63;;;37.17;nan
6853;BME280;3465;42.144;24.722;2023-09-19T08:21:31;152401.31;;;37.69;nan
6853;BME280;3465;42.144;24.722;2023-09-19T08:23:57;152224.91;;;36.99;nan
6853;BME280;3465;42.144;24.722;2023-09-19T08:26:22;152198.06;;;36.89;nan
6853;BME280;3465;42.144;24.722;2023-09-19T08:28:49;152002.59;;;36.12;nan
6853;BME280;3465;42.144;24.722;2023-09-19T08:31:16;151797.00;;;35.31;nan
6853;BME280;3465;42.144;24.722;2023-09-19T08:33:43;151601.78;;;34.54;nan
6853;BME280;3465;42.144;24.722;2023-09-19T08:36:09;151376.03;;;33.66;nan
6853;BME280;3465;42.144;24.722;2023-09-19T08:38:35;151047.13;;;32.36;nan
6853;BME280;3465;42.144;24.722;2023-09-19T08:41:06;150927.47;;;31.89;nan
6853;BME280;3465;42.144;24.722;2023-09-19T08:43:33;150949.06;;;31.97;nan
6853;BME280;3465;42.144;24.722;2023-09-19T08:48:31;151280.38;;;33.28;nan
6853;BME280;3465;42.144;24.722;2023-09-19T08:51:21;151558.38;;;34.37;nan
6853;BME280;3465;42.144;24.722;2023-09-19T08:53:58;151823.88;;;35.42;nan
6853;BME280;3465;42.144;24.722;2023-09-19T08:56:24;151876.19;;;35.62;nan
6853;BME280;3465;42.144;24.722;2023-09-19T08:58:57;151890.25;;;35.68;nan
6853;BME280;3465;42.144;24.722;2023-09-19T09:01:27;152152.06;;;36.71;nan
6853;BME280;3465;42.144;24.722;2023-09-19T09:03:53;152157.13;;;36.73;nan
6853;BME280;3465;42.144;24.722;2023-09-19T09:06:23;151724.28;;;35.03;nan
6853;BME280;3465;42.144;24.722;2023-09-19T09:08:50;151827.69;;;35.43;nan
6853;BME280;3465;42.144;24.722;2023-09-19T09:11:17;151892.78;;;35.69;nan
6853;BME280;3465;42.144;24.722;2023-09-19T09:13:44;152092.00;;;36.47;nan
6853;BME280;3465;42.144;24.722;2023-09-19T09:16:10;152117.56;;;36.57;nan
6853;BME280;3465;42.144;24.722;2023-09-19T09:18:36;152167.38;;;36.77;nan
6853;BME280;3465;42.144;24.722;2023-09-19T09:21:02;152046.03;;;36.29;nan
6853;BME280;3465;42.144;24.722;2023-09-19T09:23:30;151918.31;;;35.79;nan
6853;BME280;3465;42.144;24.722;2023-09-19T09:25:58;152020.50;;;36.19;nan
6853;BME280;3465;42.144;24.722;2023-09-19T09:28:26;151992.41;;;36.08;nan
6853;BME280;3465;42.144;24.722;2023-09-19T09:30:54;151877.47;;;35.63;nan
6853;BME280;3465;42.144;24.722;2023-09-19T09:33:20;152150.78;;;36.70;nan
6853;BME280;3465;42.144;24.722;2023-09-19T09:35:53;152419.19;;;37.76;nan
6853;BME280;3465;42.144;24.722;2023-09-19T09:38:23;152605.88;;;38.49;nan
6853;BME280;3465;42.144;24.722;2023-09-19T09:40:57;152449.88;;;37.88;nan
6853;BME280;3465;42.144;24.722;2023-09-19T09:43:37;152489.47;;;38.03;nan
6853;BME280;3465;42.144;24.722;2023-09-19T09:46:11;152552.19;;;38.28;nan
6853;BME280;3465;42.144;24.722;2023-09-19T09:48:47;152373.16;;;37.58;nan
6853;BME280;3465;42.144;24.722;2023-09-19T09:51:33;152223.63;;;36.99;nan
6853;BME280;3465;42.144;24.722;2023-09-19T09:54:17;152028.13;;;36.22;nan
6853;BME280;3465;42.144;24.722;2023-09-19T09:57:00;152040.91;;;36.27;nan
6853;BME280;3465;42.144;24.722;2023-09-19T10:02:28;151355.63;;;33.58;nan
6853;BME280;3465;42.144;24.722;2023-09-19T10:04:55;150983.47;;;32.11;nan
6853;BME280;3465;42.144;24.722;2023-09-19T10:07:40;150891.72;;;31.75;nan
6853;BME280;3465;42.144;24.722;2023-09-19T10:10:08;150914.66;;;31.84;nan
6853;BME280;3465;42.144;24.722;2023-09-19T10:12:49;150895.53;;;31.76;nan
6853;BME280;3465;42.144;24.722;2023-09-19T10:18:14;151446.16;;;33.93;nan
6853;BME280;3465;42.144;24.722;2023-09-19T10:20:45;151571.19;;;34.42;nan
6853;BME280;3465;42.144;24.722;2023-09-19T10:23:11;151859.59;;;35.56;nan
6853;BME280;3465;42.144;24.722;2023-09-19T10:25:46;152024.31;;;36.21;nan
6853;BME280;3465;42.144;24.722;2023-09-19T10:28:15;152140.53;;;36.66;nan
6853;BME280;3465;42.144;24.722;2023-09-19T10:30:45;151996.22;;;36.10;nan
6853;BME280;3465;42.144;24.722;2023-09-19T10:33:13;151876.19;;;35.62;nan
6853;BME280;3465;42.144;24.722;2023-09-19T10:35:42;151726.84;;;35.04;nan
6853;BME280;3465;42.144;24.722;2023-09-19T10:38:10;151671.94;;;34.82;nan
6853;BME280;3465;42.144;24.722;2023-09-19T10:40:37;151742.16;;;35.10;nan
6853;BME280;3465;42.144;24.722;2023-09-19T10:43:11;151813.63;;;35.38;nan
6853;BME280;3465;42.144;24.722;2023-09-19T10:45:38;151948.97;;;35.91;nan
6853;BME280;3465;42.144;24.722;2023-09-19T10:48:05;151882.59;;;35.65;nan
6853;BME280;3465;42.144;24.722;2023-09-19T10:50:52;151818.75;;;35.40;nan
6853;BME280;3465;42.144;24.722;2023-09-19T10:53:20;151996.22;;;36.10;nan
6853;BME280;3465;42.144;24.722;2023-09-19T10:55:52;151969.41;;;35.99;nan
6853;BME280;3465;42.144;24.722;2023-09-19T10:58:30;151780.44;;;35.25;nan
6853;BME280;3465;42.144;24.722;2023-09-19T11:00:59;151687.22;;;34.88;nan
6853;BME280;3465;42.144;24.722;2023-09-19T11:03:30;151508.63;;;34.18;nan
6853;BME280;3465;42.144;24.722;2023-09-19T11:06:06;151421.88;;;33.84;nan
6853;BME280;3465;42.144;24.722;2023-09-19T11:30:51;150817.88;;;31.46;nan
6853;BME280;3465;42.144;24.722;2023-09-19T11:36:14;150788.66;;;31.34;nan
6853;BME280;3465;42.144;24.722;2023-09-19T11:43:48;150989.81;;;32.14;nan
6853;BME280;3465;42.144;24.722;2023-09-19T11:46:16;150982.19;;;32.11;nan
6853;BME280;3465;42.144;24.722;2023-09-19T11:48:47;150796.28;;;31.37;nan
6853;BME280;3465;42.144;24.722;2023-09-19T11:51:16;150595.13;;;30.58;nan
6853;BME280;3465;42.144;24.722;2023-09-19T11:53:51;150507.38;;;30.23;nan
6853;BME280;3465;42.144;24.722;2023-09-19T11:56:23;150436.09;;;29.95;nan
6853;BME280;3465;42.144;24.722;2023-09-19T11:58:52;150246.66;;;29.20;nan
6853;BME280;3465;42.144;24.722;2023-09-19T12:01:32;150120.81;;;28.71;nan
6853;BME280;3465;42.144;24.722;2023-09-19T12:04:01;150158.91;;;28.86;nan
6853;BME280;3465;42.144;24.722;2023-09-19T12:06:28;150286.03;;;29.36;nan
6853;BME280;3465;42.144;24.722;2023-09-19T12:08:55;150408.13;;;29.84;nan
6853;BME280;3465;42.144;24.722;2023-09-19T12:11:23;150413.22;;;29.86;nan
6853;BME280;3465;42.144;24.722;2023-09-19T12:13:49;150525.16;;;30.30;nan
6853;BME280;3465;42.144;24.722;2023-09-19T12:16:16;150467.88;;;30.08;nan
6853;BME280;3465;42.144;24.722;2023-09-19T12:18:45;150406.84;;;29.84;nan
6853;BME280;3465;42.144;24.722;2023-09-19T12:21:41;150399.22;;;29.81;nan
6853;BME280;3465;42.144;24.722;2023-09-19T12:24:11;150348.34;;;29.61;nan
6853;BME280;3465;42.144;24.722;2023-09-19T12:26:47;150236.47;;;29.16;nan
6853;BME280;3465;42.144;24.722;2023-09-19T12:29:18;150179.25;;;28.94;nan
6853;BME280;3465;42.144;24.722;2023-09-19T12:31:55;150101.72;;;28.63;nan
6853;BME280;3465;42.144;24.722;2023-09-19T12:34:26;150122.06;;;28.71;nan
6853;BME280;3465;42.144;24.722;2023-09-19T12:37:11;150144.97;;;28.80;nan
6853;BME280;3465;42.144;24.722;2023-09-19T12:39:42;150254.28;;;29.23;nan
6853;BME280;3465;42.144;24.722;2023-09-19T12:42:12;150420.84;;;29.89;nan
6853;BME280;3465;42.144;24.722;2023-09-19T12:44:42;150612.94;;;30.65;nan
6853;BME280;3465;42.144;24.722;2023-09-19T12:47:19;150704.59;;;31.01;nan
6853;BME280;3465;42.144;24.722;2023-09-19T12:50:12;150744.06;;;31.17;nan
6853;BME280;3465;42.144;24.722;2023-09-19T12:52:44;150802.63;;;31.40;nan
6853;BME280;3465;42.144;24.722;2023-09-19T12:55:25;150702.06;;;31.00;nan
6853;BME280;3465;42.144;24.722;2023-09-19T12:58:13;150508.63;;;30.24;nan
6853;BME280;3465;42.144;24.722;2023-09-19T13:00:45;150380.16;;;29.73;nan
6853;BME280;3465;42.144;24.722;2023-09-19T13:05:59;150164.00;;;28.88;nan
6853;BME280;3465;42.144;24.722;2023-09-19T13:08:34;150058.50;;;28.46;nan
6853;BME280;3465;42.144;24.722;2023-09-19T13:13:45;149864.19;;;27.69;nan
6853;BME280;3465;42.144;24.722;2023-09-19T13:16:14;149860.38;;;27.68;nan
6853;BME280;3465;42.144;24.722;2023-09-19T13:18:46;149864.19;;;27.69;nan
6853;BME280;3465;42.144;24.722;2023-09-19T13:21:13;149840.06;;;27.60;nan
6853;BME280;3465;42.144;24.722;2023-09-19T13:24:24;149845.16;;;27.62;nan
6853;BME280;3465;42.144;24.722;2023-09-19T13:26:53;149836.25;;;27.58;nan
6853;BME280;3465;42.144;24.722;2023-09-19T13:29:18;149601.47;;;26.65;nan
6853;BME280;3465;42.144;24.722;2023-09-19T13:31:51;149499.94;;;26.25;nan
6853;BME280;3465;42.144;24.722;2023-09-19T13:34:20;149515.16;;;26.31;nan
6853;BME280;3465;42.144;24.722;2023-09-19T13:36:46;149502.47;;;26.26;nan
6853;BME280;3465;42.144;24.722;2023-09-19T13:39:14;149503.75;;;26.27;nan
6853;BME280;3465;42.144;24.722;2023-09-19T13:41:41;149522.75;;;26.34;nan
6853;BME280;3465;42.144;24.722;2023-09-19T13:44:08;149535.44;;;26.39;nan
6853;BME280;3465;42.144;24.722;2023-09-19T13:46:36;149512.56;;;26.30;nan
6853;BME280;3465;42.144;24.722;2023-09-19T13:49:01;149451.72;;;26.06;nan
6853;BME280;3465;42.144;24.722;2023-09-19T13:51:30;149376.88;;;25.77;nan
6853;BME280;3465;42.144;24.722;2023-09-19T13:53:55;149361.69;;;25.71;nan
6853;BME280;3465;42.144;24.722;2023-09-19T13:56:21;149376.88;;;25.77;nan
6853;BME280;3465;42.144;24.722;2023-09-19T13:58:47;149399.69;;;25.86;nan
6853;BME280;3465;42.144;24.722;2023-09-19T14:01:12;149428.84;;;25.97;nan
6853;BME280;3465;42.144;24.722;2023-09-19T14:03:41;149439.06;;;26.01;nan
6853;BME280;3465;42.144;24.722;2023-09-19T14:06:18;149470.75;;;26.14;nan
6853;BME280;3465;42.144;24.722;2023-09-19T14:08:44;149451.72;;;26.06;nan
6853;BME280;3465;42.144;24.722;2023-09-19T14:11:13;149439.06;;;26.01;nan
6853;BME280;3465;42.144;24.722;2023-09-19T14:13:43;149446.66;;;26.04;nan
6853;BME280;3465;42.144;24.722;2023-09-19T14:16:12;149421.25;;;25.94;nan
6853;BME280;3465;42.144;24.722;2023-09-19T14:18:38;149426.34;;;25.96;nan
6853;BME280;3465;42.144;24.722;2023-09-19T14:21:06;149421.25;;;25.94;nan
6853;BME280;3465;42.144;24.722;2023-09-19T14:23:40;149425.06;;;25.96;nan
6853;BME280;3465;42.144;24.722;2023-09-19T14:26:06;149387.00;;;25.81;nan